Rio Tinto, Brazil
Current Conditions -  °F | °C
As of 10:00 PM on Friday 24 Oct 2014 (Local Time) from SBJP Reporting Station
Few Clouds Few Clouds  
Wind Chill: 75°   Ceiling: Unl
Heat Index: 75°   Visibility: 6mi
Dew Point: 68°   Wind: 7mph
Humidity: 78%   Direction: 130°SE
Pressure: 29.97"   Gusts: NA
Location:  6.8°S, 35.08°W
Report Text: SBJP 250100Z 13006KT 9999 FEW020 24/20 Q1015
Loading
Personal Weather Stations






























Interactive Weather Map
Tropical Storm Tracking
New forecast layout! Learn more

10-Day Weather Forecast

Advertisements
Track Severe Weather on mobile